createdAt,value
2022-09-10T00:00:43.570Z,1.97
2022-09-10T00:03:11.248Z,2.10
2022-09-10T00:05:46.363Z,2.08
2022-09-10T00:08:13.398Z,2.00
2022-09-10T00:10:42.625Z,2.50
2022-09-10T00:13:10.520Z,2.47
2022-09-10T00:15:46.618Z,2.15
2022-09-10T00:18:15.390Z,2.08
2022-09-10T00:20:47.882Z,2.10
2022-09-10T00:23:15.858Z,2.25
2022-09-10T00:25:42.813Z,2.27
2022-09-10T00:28:09.630Z,2.67
2022-09-10T00:30:47.177Z,2.38
2022-09-10T00:33:15.210Z,2.30
2022-09-10T00:35:42.334Z,2.72
2022-09-10T00:38:10.506Z,2.67
2022-09-10T00:40:39.890Z,2.75
2022-09-10T00:43:15.117Z,2.67
2022-09-10T00:45:43.973Z,2.42
2022-09-10T00:48:18.329Z,2.35
2022-09-10T00:50:47.273Z,2.50
2022-09-10T00:53:17.989Z,2.40
2022-09-10T00:55:50.314Z,2.65
2022-09-10T00:58:18.973Z,2.58
2022-09-10T01:00:45.882Z,2.40
2022-09-10T01:03:14.760Z,2.60
2022-09-10T01:05:44.770Z,2.47
2022-09-10T01:08:18.808Z,2.80
2022-09-10T01:10:48.210Z,2.63
2022-09-10T01:13:42.597Z,2.45
2022-09-10T01:16:15.048Z,2.60
2022-09-10T01:19:02.633Z,2.70
2022-09-10T01:21:30.913Z,2.97
2022-09-10T01:24:35.038Z,3.42
2022-09-10T01:27:29.093Z,2.60
2022-09-10T01:30:06.857Z,3.07
2022-09-10T01:32:41.676Z,2.67
2022-09-10T01:35:18.147Z,2.90
2022-09-10T01:37:49.118Z,2.88
2022-09-10T01:40:18.002Z,2.90
2022-09-10T01:42:45.618Z,2.77
2022-09-10T01:45:14.534Z,2.80
2022-09-10T01:47:43.666Z,2.97
2022-09-10T01:50:16.853Z,2.80
2022-09-10T01:53:20.616Z,3.08
2022-09-10T01:55:53.853Z,3.10
2022-09-10T01:58:28.875Z,3.08
2022-09-10T02:01:20.204Z,3.25
2022-09-10T02:03:50.095Z,3.03
2022-09-10T02:06:20.808Z,3.00
2022-09-10T02:08:52.367Z,3.30
2022-09-10T02:11:19.248Z,3.70
2022-09-10T02:13:45.721Z,3.08
2022-09-10T02:16:16.399Z,3.50
2022-09-10T02:18:43.542Z,3.35
2022-09-10T02:21:11.587Z,3.17
2022-09-10T02:23:45.027Z,3.40
2022-09-10T02:26:14.376Z,3.40
2022-09-10T02:28:43.565Z,3.60
2022-09-10T02:31:10.480Z,3.40
2022-09-10T02:33:36.892Z,3.30
2022-09-10T02:36:03.817Z,3.45
2022-09-10T02:38:30.226Z,3.40
2022-09-10T02:40:59.197Z,3.90
2022-09-10T02:43:31.806Z,3.20
2022-09-10T02:45:59.156Z,3.40
2022-09-10T02:48:27.585Z,3.85
2022-09-10T02:50:54.298Z,3.55
2022-09-10T02:53:21.292Z,3.53
2022-09-10T02:55:48.419Z,3.42
2022-09-10T02:58:15.982Z,3.50
2022-09-10T03:00:43.298Z,3.40
2022-09-10T03:03:10.078Z,3.75
2022-09-10T03:05:38.330Z,3.40
2022-09-10T03:08:06.148Z,3.50
2022-09-10T03:10:33.052Z,3.37
2022-09-10T03:12:59.989Z,3.38
2022-09-10T03:15:27.585Z,3.22
2022-09-10T03:17:54.720Z,3.30
2022-09-10T03:20:23.972Z,3.78
2022-09-10T03:22:51.528Z,3.93
2022-09-10T03:25:22.644Z,3.40
2022-09-10T03:27:49.097Z,3.63
2022-09-10T03:30:15.725Z,3.47
2022-09-10T03:32:42.112Z,3.65
2022-09-10T03:35:10.185Z,3.70
2022-09-10T03:37:36.522Z,3.40
2022-09-10T03:40:03.287Z,3.80
2022-09-10T03:42:29.699Z,3.83
2022-09-10T03:44:56.638Z,3.85
2022-09-10T03:47:23.043Z,3.97
2022-09-10T03:49:51.672Z,3.95
2022-09-10T03:52:18.144Z,3.70
2022-09-10T03:54:45.514Z,3.60
2022-09-10T03:57:11.871Z,3.50
2022-09-10T03:59:42.056Z,3.63
2022-09-10T04:02:11.585Z,3.90
2022-09-10T04:04:38.090Z,3.92
2022-09-10T04:07:05.017Z,3.75
2022-09-10T04:09:32.493Z,3.40
2022-09-10T04:11:59.614Z,4.00
2022-09-10T04:14:26.998Z,4.07
2022-09-10T04:16:53.426Z,3.60
2022-09-10T04:19:19.902Z,3.50
2022-09-10T04:21:46.268Z,3.70
2022-09-10T04:24:12.701Z,3.93
2022-09-10T04:26:39.561Z,3.60
2022-09-10T04:29:06.049Z,3.92
2022-09-10T04:31:32.449Z,3.95
2022-09-10T04:34:01.948Z,4.45
2022-09-10T04:36:28.441Z,4.03
2022-09-10T04:38:54.817Z,4.00
2022-09-10T04:41:21.195Z,4.10
2022-09-10T04:43:47.591Z,4.05
2022-09-10T04:46:14.061Z,4.20
2022-09-10T04:48:40.758Z,4.67
2022-09-10T04:51:16.288Z,3.95
2022-09-10T04:53:44.428Z,4.20
2022-09-10T04:56:11.009Z,3.97
2022-09-10T04:58:39.161Z,4.53
2022-09-10T05:01:06.423Z,4.67
2022-09-10T05:03:33.310Z,4.35
2022-09-10T05:05:59.658Z,4.68
2022-09-10T05:08:26.007Z,5.10
2022-09-10T05:10:53.312Z,4.82
2022-09-10T05:13:19.740Z,5.30
2022-09-10T05:15:46.237Z,4.88
2022-09-10T05:18:12.699Z,5.07
2022-09-10T05:20:39.040Z,4.35
2022-09-10T05:23:05.528Z,4.50
2022-09-10T05:25:31.974Z,4.67
2022-09-10T05:27:58.334Z,4.22
2022-09-10T05:30:24.693Z,4.55
2022-09-10T05:32:53.161Z,4.70
2022-09-10T05:35:20.201Z,4.97
2022-09-10T05:37:46.536Z,5.70
2022-09-10T05:40:14.427Z,6.22
2022-09-10T05:42:40.813Z,6.47
2022-09-10T05:45:07.751Z,6.40
2022-09-10T05:47:34.465Z,6.65
2022-09-10T05:50:00.831Z,6.23
2022-09-10T05:52:27.268Z,6.25
2022-09-10T05:54:56.395Z,5.88
2022-09-10T05:57:22.756Z,5.60
2022-09-10T05:59:49.156Z,4.57
2022-09-10T06:02:23.890Z,3.90
2022-09-10T06:04:50.556Z,4.28
2022-09-10T06:07:16.913Z,3.20
2022-09-10T06:09:43.451Z,3.10
2022-09-10T06:12:09.833Z,2.85
2022-09-10T06:14:36.221Z,2.80
2022-09-10T06:17:02.747Z,2.40
2022-09-10T06:19:29.596Z,2.90
2022-09-10T06:21:56.021Z,2.15
2022-09-10T06:24:24.350Z,2.20
2022-09-10T06:26:50.869Z,1.90
2022-09-10T06:29:21.064Z,1.67
2022-09-10T06:31:47.591Z,1.60
2022-09-10T06:34:14.088Z,1.50
2022-09-10T06:36:41.421Z,1.60
2022-09-10T06:39:07.890Z,1.57
2022-09-10T06:41:34.620Z,1.73
2022-09-10T06:44:01.134Z,1.38
2022-09-10T06:49:14.456Z,1.45
2022-09-10T06:51:41.221Z,1.40
2022-09-10T06:54:07.792Z,1.50
2022-09-10T06:56:34.375Z,1.52
2022-09-10T06:59:02.654Z,1.60
2022-09-10T07:01:29.466Z,1.48
2022-09-10T07:03:58.040Z,1.60
2022-09-10T07:06:26.273Z,1.40
2022-09-10T07:08:56.821Z,1.60
2022-09-10T07:11:26.593Z,1.60
2022-09-10T07:13:53.752Z,1.55
2022-09-10T07:16:21.731Z,1.50
2022-09-10T07:18:54.599Z,1.90
2022-09-10T07:21:22.345Z,1.80
2022-09-10T07:23:50.034Z,2.03
2022-09-10T07:26:19.546Z,2.10
2022-09-10T07:28:46.567Z,1.60
2022-09-10T07:31:22.352Z,1.92
2022-09-10T07:33:49.928Z,1.85
2022-09-10T07:36:17.582Z,1.90
2022-09-10T07:38:44.596Z,1.67
2022-09-10T07:41:13.164Z,2.00
2022-09-10T07:43:40.583Z,1.92
2022-09-10T07:46:07.589Z,1.80
2022-09-10T07:48:34.293Z,1.60
2022-09-10T07:51:02.411Z,1.73
2022-09-10T07:53:28.781Z,1.80
2022-09-10T07:55:59.645Z,1.80
2022-09-10T07:58:25.976Z,1.48
2022-09-10T08:00:54.101Z,1.50
2022-09-10T08:03:21.448Z,1.70
2022-09-10T08:05:48.179Z,1.57
2022-09-10T08:08:14.822Z,1.60
2022-09-10T08:10:42.165Z,1.60
2022-09-10T08:13:10.025Z,1.33
2022-09-10T08:15:41.403Z,1.60
2022-09-10T08:18:07.759Z,1.60
2022-09-10T08:20:34.154Z,1.42
2022-09-10T08:23:00.703Z,1.88
2022-09-10T08:25:27.046Z,1.60
2022-09-10T08:27:54.325Z,1.80
2022-09-10T08:30:20.711Z,1.70
2022-09-10T08:32:47.102Z,1.80
2022-09-10T08:35:14.466Z,2.20
2022-09-10T08:37:40.834Z,2.20
2022-09-10T08:40:09.086Z,2.45
2022-09-10T08:42:41.421Z,1.97
2022-09-10T08:45:18.011Z,1.90
2022-09-10T08:47:58.942Z,2.38
2022-09-10T08:50:53.476Z,2.20
2022-09-10T08:53:23.682Z,2.20
2022-09-10T08:55:50.726Z,2.27
2022-09-10T08:58:23.214Z,2.50
2022-09-10T09:00:55.960Z,2.40
2022-09-10T09:03:33.733Z,2.40
2022-09-10T09:06:06.692Z,2.15
2022-09-10T09:08:44.234Z,1.97
2022-09-10T09:11:47.994Z,2.00
2022-09-10T09:14:41.334Z,2.08
2022-09-10T09:17:26.005Z,1.75
2022-09-10T09:20:31.602Z,1.58
2022-09-10T09:23:22.549Z,1.30
2022-09-10T09:25:59.050Z,1.92
2022-09-10T09:28:39.328Z,2.03
2022-09-10T09:31:13.901Z,1.80
2022-09-10T09:33:41.367Z,2.40
2022-09-10T09:36:12.087Z,2.30
2022-09-10T09:38:41.653Z,2.30
2022-09-10T09:41:17.223Z,2.70
2022-09-10T09:44:17.124Z,2.50
2022-09-10T09:46:43.486Z,2.78
2022-09-10T09:49:16.981Z,2.90
2022-09-10T09:51:48.565Z,2.90
2022-09-10T09:54:56.874Z,2.90
2022-09-10T09:57:16.211Z,2.75
2022-09-10T09:59:43.511Z,2.47
2022-09-10T10:02:22.475Z,2.47
2022-09-10T10:05:24.206Z,2.40
2022-09-10T10:07:50.799Z,3.08
2022-09-10T10:10:26.696Z,2.80
2022-09-10T10:12:54.989Z,3.00
2022-09-10T10:15:41.035Z,2.70
2022-09-10T10:18:33.466Z,2.70
2022-09-10T10:21:15.030Z,2.63
2022-09-10T10:23:42.348Z,2.95
2022-09-10T10:26:30.312Z,2.60
2022-09-10T10:29:06.242Z,2.30
2022-09-10T10:31:44.381Z,2.58
2022-09-10T10:34:16.764Z,2.50
2022-09-10T10:37:01.465Z,3.08
2022-09-10T10:39:43.163Z,2.50
2022-09-10T10:42:35.304Z,2.50
2022-09-10T10:45:14.089Z,2.33
2022-09-10T10:48:01.986Z,2.47
2022-09-10T10:50:42.696Z,2.70
2022-09-10T10:53:26.751Z,1.80
2022-09-10T10:56:14.743Z,2.10
2022-09-10T10:59:04.466Z,2.22
2022-09-10T11:01:37.315Z,1.35
2022-09-10T11:04:29.374Z,1.50
2022-09-10T11:07:08.332Z,1.42
2022-09-10T11:09:43.021Z,1.30
2022-09-10T11:12:19.249Z,1.00
2022-09-10T11:14:56.045Z,1.13
2022-09-10T11:17:31.800Z,1.60
2022-09-10T11:20:28.848Z,1.70
2022-09-10T11:23:18.328Z,1.70
2022-09-10T11:25:55.036Z,1.33
2022-09-10T11:28:33.930Z,1.85
2022-09-10T11:31:08.380Z,1.80
2022-09-10T11:33:46.171Z,1.80
2022-09-10T11:36:23.327Z,1.70
2022-09-10T11:39:17.044Z,2.05
2022-09-10T11:41:46.265Z,1.98
2022-09-10T11:44:15.782Z,2.08
2022-09-10T11:46:56.389Z,1.77
2022-09-10T11:49:37.206Z,1.80
2022-09-10T11:52:03.738Z,1.83
2022-09-10T11:54:34.611Z,2.20
2022-09-10T11:57:01.016Z,2.10
2022-09-10T11:59:46.235Z,2.15
2022-09-10T12:02:50.309Z,1.93
2022-09-10T12:05:35.518Z,1.80
2022-09-10T12:08:24.652Z,1.88
2022-09-10T12:11:04.564Z,2.00
2022-09-10T12:13:33.188Z,1.50
2022-09-10T12:16:15.935Z,1.90
2022-09-10T12:18:45.502Z,1.40
2022-09-10T12:21:40.192Z,1.40
2022-09-10T12:24:27.736Z,1.00
2022-09-10T12:26:54.917Z,1.00
2022-09-10T12:29:40.728Z,1.10
2022-09-10T12:32:19.211Z,0.68
2022-09-10T12:34:51.023Z,1.13
2022-09-10T12:37:27.955Z,0.80
2022-09-10T12:40:25.626Z,0.75
2022-09-10T12:42:58.023Z,0.70
2022-09-10T12:46:02.864Z,0.75
2022-09-10T12:48:29.823Z,0.95
2022-09-10T12:51:00.528Z,0.90
2022-09-10T12:53:43.990Z,0.82
2022-09-10T12:56:37.567Z,0.80
2022-09-10T12:59:24.334Z,0.75
2022-09-10T13:01:51.933Z,1.10
2022-09-10T13:04:34.882Z,1.00
2022-09-10T13:07:18.641Z,0.88
2022-09-10T13:09:46.626Z,0.93
2022-09-10T13:12:19.724Z,1.00
2022-09-10T13:14:49.435Z,1.52
2022-09-10T13:18:01.207Z,1.40
2022-09-10T13:20:27.503Z,1.25
2022-09-10T13:23:01.586Z,1.20
2022-09-10T13:25:34.859Z,1.20
2022-09-10T13:28:01.813Z,1.50
2022-09-10T13:30:29.749Z,1.20
2022-09-10T13:32:58.775Z,1.40
2022-09-10T13:35:58.170Z,1.20
2022-09-10T13:39:03.171Z,1.00
2022-09-10T13:41:57.253Z,1.15
2022-09-10T13:44:35.754Z,1.10
2022-09-10T13:47:09.473Z,1.00
2022-09-10T13:50:02.435Z,1.10
2022-09-10T13:52:34.471Z,1.00
2022-09-10T13:55:03.174Z,1.10
2022-09-10T13:57:42.611Z,1.20
2022-09-10T14:00:26.080Z,1.00
2022-09-10T14:03:00.270Z,0.80
2022-09-10T14:05:35.338Z,1.08
2022-09-10T14:08:11.076Z,0.98
2022-09-10T14:10:50.546Z,0.88
2022-09-10T14:13:22.756Z,0.80
2022-09-10T14:15:51.761Z,0.83
2022-09-10T14:18:19.355Z,0.80
2022-09-10T14:20:46.094Z,0.93
2022-09-10T14:23:16.867Z,0.90
2022-09-10T14:25:45.420Z,0.90
2022-09-10T14:28:27.747Z,0.90
2022-09-10T14:31:20.591Z,0.95
2022-09-10T14:33:47.110Z,1.13
2022-09-10T14:36:33.853Z,1.05
2022-09-10T14:39:16.343Z,0.80
2022-09-10T14:41:43.233Z,1.03
2022-09-10T14:44:14.343Z,0.80
2022-09-10T14:46:58.837Z,0.90
2022-09-10T14:49:33.673Z,1.00
2022-09-10T14:52:01.549Z,0.88
2022-09-10T14:54:29.678Z,0.80
2022-09-10T14:56:57.981Z,0.75
2022-09-10T14:59:39.854Z,1.02
2022-09-10T15:02:17.138Z,0.90
2022-09-10T15:04:43.906Z,1.00
2022-09-10T15:07:10.695Z,0.90
2022-09-10T15:09:37.064Z,1.10
2022-09-10T15:12:16.966Z,1.00
2022-09-10T15:14:43.356Z,0.95
2022-09-10T15:17:13.860Z,0.90
2022-09-10T15:19:40.245Z,0.97
2022-09-10T15:22:06.976Z,0.95
2022-09-10T15:24:52.506Z,1.00
2022-09-10T15:27:19.357Z,1.00
2022-09-10T15:29:46.112Z,1.10
2022-09-10T15:32:13.713Z,1.00
2022-09-10T15:34:40.823Z,0.90
2022-09-10T15:37:07.804Z,1.08
2022-09-10T15:39:37.938Z,1.00
2022-09-10T15:42:07.425Z,1.00
2022-09-10T15:44:34.174Z,1.20
2022-09-10T15:47:01.367Z,1.10
2022-09-10T15:49:28.669Z,1.20
2022-09-10T15:51:55.430Z,1.20
2022-09-10T15:54:21.959Z,1.25
2022-09-10T15:56:48.326Z,1.20
2022-09-10T15:59:16.442Z,1.08
2022-09-10T16:01:43.086Z,1.00
2022-09-10T16:04:09.961Z,1.10
2022-09-10T16:06:40.534Z,1.10
2022-09-10T16:09:09.666Z,1.00
2022-09-10T16:11:38.412Z,1.20
2022-09-10T16:14:07.134Z,1.40
2022-09-10T16:16:35.241Z,1.20
2022-09-10T16:19:01.840Z,1.08
2022-09-10T16:21:30.989Z,1.20
2022-09-10T16:23:59.316Z,1.40
2022-09-10T16:26:31.310Z,1.20
2022-09-10T16:29:03.125Z,1.20
2022-09-10T16:31:32.373Z,1.17
2022-09-10T16:34:02.951Z,1.27
2022-09-10T16:36:31.268Z,1.10
2022-09-10T16:38:58.985Z,1.25
2022-09-10T16:41:27.398Z,1.50
2022-09-10T16:43:55.018Z,1.55
2022-09-10T16:46:21.402Z,1.50
2022-09-10T16:48:51.747Z,1.25
2022-09-10T16:51:19.981Z,1.35
2022-09-10T16:53:52.177Z,1.90
2022-09-10T16:56:18.526Z,1.50
2022-09-10T16:58:48.576Z,1.33
2022-09-10T17:01:15.712Z,1.42
2022-09-10T17:03:44.681Z,1.50
2022-09-10T17:06:19.595Z,1.30
2022-09-10T17:08:46.845Z,1.38
2022-09-10T17:11:17.874Z,1.20
2022-09-10T17:13:44.380Z,1.42
2022-09-10T17:16:33.018Z,1.80
2022-09-10T17:19:07.797Z,1.50
2022-09-10T17:21:35.853Z,1.42
2022-09-10T17:24:04.115Z,1.53
2022-09-10T17:26:31.810Z,1.48
2022-09-10T17:29:06.465Z,1.75
2022-09-10T17:31:33.964Z,1.60
2022-09-10T17:34:00.911Z,1.60
2022-09-10T17:36:27.969Z,1.90
2022-09-10T17:38:55.233Z,1.75
2022-09-10T17:41:23.646Z,1.80
2022-09-10T17:43:50.038Z,1.75
2022-09-10T17:46:18.926Z,1.67
2022-09-10T17:48:45.791Z,1.97
2022-09-10T17:51:14.589Z,3.03
2022-09-10T17:53:41.273Z,3.80
2022-09-10T17:56:10.662Z,6.88
2022-09-10T17:58:37.743Z,4.20
2022-09-10T18:01:13.846Z,2.90
2022-09-10T18:03:40.833Z,2.60
2022-09-10T18:06:09.697Z,2.55
2022-09-10T18:08:40.089Z,3.50
2022-09-10T18:11:13.069Z,3.03
2022-09-10T18:13:40.006Z,3.73
2022-09-10T18:16:09.135Z,3.65
2022-09-10T18:18:36.715Z,4.15
2022-09-10T18:21:14.856Z,4.35
2022-09-10T18:23:43.625Z,4.10
2022-09-10T18:26:19.262Z,6.03
2022-09-10T18:28:59.372Z,5.28
2022-09-10T18:31:28.211Z,5.40
2022-09-10T18:33:55.712Z,5.47
2022-09-10T18:36:23.638Z,6.15
2022-09-10T18:38:50.070Z,12.00
2022-09-10T18:41:25.602Z,14.13
2022-09-10T18:43:54.163Z,12.45
2022-09-10T18:46:21.219Z,14.35
2022-09-10T18:48:48.022Z,15.23
2022-09-10T18:51:17.023Z,12.93
2022-09-10T18:53:45.217Z,11.65
2022-09-10T18:56:16.725Z,12.10
2022-09-10T18:58:49.098Z,12.77
2022-09-10T19:01:16.055Z,12.18
2022-09-10T19:03:45.152Z,11.67
2022-09-10T19:06:15.086Z,10.68
2022-09-10T19:08:50.806Z,10.43
2022-09-10T19:11:17.537Z,10.13
2022-09-10T19:13:48.915Z,10.10
2022-09-10T19:16:15.371Z,8.67
2022-09-10T19:18:43.606Z,11.90
2022-09-10T19:21:10.348Z,19.92
2022-09-10T19:23:37.377Z,31.00
2022-09-10T19:26:03.796Z,21.30
2022-09-10T19:28:33.545Z,19.63
2022-09-10T19:31:04.877Z,12.98
2022-09-10T19:33:36.246Z,10.70
2022-09-10T19:36:05.053Z,7.10
2022-09-10T19:38:37.792Z,5.50
2022-09-10T19:41:12.844Z,4.57
2022-09-10T19:43:40.922Z,4.50
2022-09-10T19:46:12.759Z,3.65
2022-09-10T19:48:40.115Z,4.20
2022-09-10T19:51:09.971Z,4.30
2022-09-10T19:53:37.753Z,3.87
2022-09-10T19:56:09.130Z,3.70
2022-09-10T19:58:36.645Z,4.00
2022-09-10T20:01:11.818Z,3.65
2022-09-10T20:03:39.917Z,3.67
2022-09-10T20:06:07.737Z,4.20
2022-09-10T20:08:34.745Z,4.00
2022-09-10T20:11:03.847Z,3.78
2022-09-10T20:13:30.210Z,3.65
2022-09-10T20:16:00.104Z,3.38
2022-09-10T20:18:31.024Z,3.50
2022-09-10T20:21:11.965Z,3.65
2022-09-10T20:23:39.512Z,3.33
2022-09-10T20:26:14.231Z,3.70
2022-09-10T20:28:41.233Z,3.70
2022-09-10T20:31:09.822Z,3.77
2022-09-10T20:33:37.530Z,4.10
2022-09-10T20:36:06.074Z,4.40
2022-09-10T20:38:33.555Z,4.45
2022-09-10T20:41:01.030Z,5.30
2022-09-10T20:43:28.327Z,5.60
2022-09-10T20:45:56.842Z,6.20
2022-09-10T20:48:24.471Z,6.63
2022-09-10T20:51:00.558Z,6.40
2022-09-10T20:53:27.791Z,7.25
2022-09-10T20:56:06.361Z,7.23
2022-09-10T20:58:35.314Z,7.38
2022-09-10T21:01:14.420Z,7.22
2022-09-10T21:03:41.044Z,7.20
2022-09-10T21:06:08.632Z,7.32
2022-09-10T21:08:36.924Z,8.67
2022-09-10T21:11:15.366Z,8.48
2022-09-10T21:13:51.625Z,8.77
2022-09-10T21:16:35.701Z,8.45
2022-09-10T21:19:09.007Z,8.32
2022-09-10T21:21:36.914Z,8.20
2022-09-10T21:24:06.338Z,8.15
2022-09-10T21:26:35.518Z,7.78
2022-09-10T21:29:04.261Z,7.90
2022-09-10T21:31:31.267Z,7.35
2022-09-10T21:34:03.085Z,7.50
2022-09-10T21:36:30.671Z,7.55
2022-09-10T21:38:59.843Z,7.88
2022-09-10T21:41:35.435Z,8.02
2022-09-10T21:44:08.658Z,8.15
2022-09-10T21:46:36.178Z,8.33
2022-09-10T21:49:03.420Z,10.13
2022-09-10T21:51:29.861Z,10.75
2022-09-10T21:53:59.424Z,11.45
2022-09-10T21:56:27.599Z,12.80
2022-09-10T21:58:56.585Z,12.97
2022-09-10T22:01:26.409Z,12.13
2022-09-10T22:03:55.002Z,11.82
2022-09-10T22:06:24.086Z,11.30
2022-09-10T22:08:53.802Z,10.20
2022-09-10T22:11:25.594Z,11.50
2022-09-10T22:13:54.142Z,10.77
2022-09-10T22:16:22.706Z,10.88
2022-09-10T22:18:49.896Z,10.63
2022-09-10T22:21:17.195Z,10.57
2022-09-10T22:23:44.628Z,10.27
2022-09-10T22:26:16.166Z,10.57
2022-09-10T22:28:43.245Z,10.00
2022-09-10T22:31:17.057Z,10.35
2022-09-10T22:33:45.088Z,10.98
2022-09-10T22:36:18.614Z,10.63
2022-09-10T22:38:49.920Z,10.20
2022-09-10T22:41:16.354Z,10.45
2022-09-10T22:43:43.015Z,10.52
2022-09-10T22:46:10.271Z,11.98
2022-09-10T22:48:38.883Z,10.87
2022-09-10T22:51:07.011Z,10.48
2022-09-10T22:53:34.566Z,11.02
2022-09-10T22:56:02.138Z,10.77
2022-09-10T22:58:28.719Z,10.60
2022-09-10T23:00:55.988Z,10.47
2022-09-10T23:03:22.826Z,10.35
2022-09-10T23:05:49.526Z,10.10
2022-09-10T23:08:16.990Z,9.57
2022-09-10T23:10:43.379Z,10.10
2022-09-10T23:13:09.748Z,10.03
2022-09-10T23:15:36.393Z,9.10
2022-09-10T23:18:02.874Z,8.90
2022-09-10T23:20:29.242Z,8.88
2022-09-10T23:22:55.641Z,8.73
2022-09-10T23:25:22.068Z,8.00
2022-09-10T23:27:51.165Z,8.65
2022-09-10T23:30:17.902Z,8.10
2022-09-10T23:32:45.226Z,8.82
2022-09-10T23:35:11.599Z,8.85
2022-09-10T23:37:38.316Z,8.57
2022-09-10T23:40:05.461Z,8.80
2022-09-10T23:42:33.220Z,8.23
2022-09-10T23:44:59.601Z,8.77
2022-09-10T23:47:26.949Z,8.27
2022-09-10T23:49:53.350Z,8.73
2022-09-10T23:52:20.426Z,8.27
2022-09-10T23:54:47.341Z,8.60
2022-09-10T23:57:13.775Z,8.20
2022-09-10T23:59:40.261Z,8.30
